Calaveras Co Maury Rasmussen Field


Codes: KCPU/
Name: Calaveras Co Maury Rasmussen Field
City: San Andreas
Country: United States
Elevation: 1325 ft.
Wikipedia:

Photos at Calaveras Co Maury Rasmussen Field


   Photos courtesy of SpottingLog. You can add your own sightings and photos by signing up for a free trial today.



No photos found.

Weather at Calaveras Co Maury Rasmussen Field


Time (UTC)DescriptionTempratureWindCloud coverageVisibilityPressureHumidity
18-Apr-2024 00:00Scattered Clouds23°C4 mph, W33%10000m1015hPa53%
18-Apr-2024 03:00Broken Clouds18°C2 mph, N52%10000m1014hPa77%
18-Apr-2024 06:00Scattered Clouds14°C4 mph, E42%10000m1015hPa89%
18-Apr-2024 09:00Clear Sky12°C4 mph, E1%10000m1014hPa80%
18-Apr-2024 12:00Clear Sky12°C4 mph, E1%10000m1015hPa73%
18-Apr-2024 15:00Clear Sky16°C2 mph, E0%10000m1015hPa61%
18-Apr-2024 18:00Clear Sky22°C4 mph, SW7%10000m1014hPa51%
18-Apr-2024 21:00Overcast Clouds23°C4 mph, SW100%10000m1013hPa51%
19-Apr-2024 00:00Overcast Clouds22°C4 mph, W100%10000m1012hPa55%
19-Apr-2024 03:00Overcast Clouds16°C2 mph, NE96%10000m1013hPa90%
19-Apr-2024 06:00Overcast Clouds14°C4 mph, NE88%10000m1013hPa87%
19-Apr-2024 09:00Overcast Clouds14°C2 mph, NE100%10000m1013hPa80%
19-Apr-2024 12:00Overcast Clouds13°C4 mph, NE100%10000m1013hPa73%
19-Apr-2024 15:00Overcast Clouds16°C2 mph, N100%10000m1014hPa66%
19-Apr-2024 18:00Overcast Clouds21°C4 mph, W98%10000m1013hPa57%
19-Apr-2024 21:00Overcast Clouds23°C7 mph, W85%10000m1013hPa52%
20-Apr-2024 00:00Broken Clouds23°C7 mph, W61%10000m1012hPa55%
20-Apr-2024 03:00Clear Sky16°C4 mph, NW0%10000m1013hPa92%
20-Apr-2024 06:00Clear Sky14°C2 mph, NE0%10000m1014hPa91%
20-Apr-2024 09:00Clear Sky13°C2 mph, NE0%10000m1014hPa88%
20-Apr-2024 12:00Scattered Clouds13°C4 mph, NE28%10000m1015hPa86%
20-Apr-2024 15:00Clear Sky16°C2 mph, N3%10000m1016hPa71%
20-Apr-2024 18:00Clear Sky21°C4 mph, W2%10000m1017hPa46%
20-Apr-2024 21:00Clear Sky22°C7 mph, W0%10000m1017hPa42%
21-Apr-2024 00:00Clear Sky22°C7 mph, NW2%10000m1016hPa52%
21-Apr-2024 03:00Broken Clouds15°C4 mph, N71%10000m1016hPa84%
21-Apr-2024 06:00Scattered Clouds14°C4 mph, NE44%10000m1017hPa86%
21-Apr-2024 09:00Clear Sky13°C2 mph, NE0%10000m1017hPa81%
21-Apr-2024 12:00Clear Sky12°C2 mph, NE2%10000m1016hPa77%
21-Apr-2024 15:00Scattered Clouds16°C0 mph, NW42%10000m1016hPa67%
21-Apr-2024 18:00Broken Clouds21°C4 mph, W57%10000m1015hPa54%
21-Apr-2024 21:00Clear Sky24°C7 mph, W4%10000m1014hPa47%
22-Apr-2024 00:00Clear Sky24°C4 mph, W5%10000m1012hPa50%
22-Apr-2024 03:00Clear Sky16°C2 mph, W8%10000m1012hPa85%
22-Apr-2024 06:00Few Clouds15°C4 mph, NE15%10000m1012hPa88%
22-Apr-2024 09:00Broken Clouds14°C4 mph, NE53%10000m1011hPa87%
22-Apr-2024 12:00Broken Clouds13°C4 mph, NE72%10000m1010hPa84%
22-Apr-2024 15:00Broken Clouds17°C0 mph, N75%10000m1010hPa70%
22-Apr-2024 18:00Broken Clouds22°C4 mph, SW62%10000m1009hPa56%
22-Apr-2024 21:00Clear Sky23°C7 mph, SW8%10000m1008hPa52%